Time;durP1;ratioP1;P1;durP2;ratioP2;P2;SDS_P1;SDS_P2;PMS_P1;PMS_P2;Temp;Humidity;BMP_temperature;BMP_pressure;BME280_temperature;BME280_humidity;BME280_pressure;Samples;Min_cycle;Max_cycle;Signal;HPM_P1;HPM_P2
2023/08/06 00:00:35;;;;;;;18.10;12.50;;;;;;;14.91;100.00;100255.00;5051319;28;20029;-67
2023/08/06 00:03:00;;;;;;;21.02;12.23;;;;;;;14.90;100.00;100255.38;5051148;28;20026;-66
2023/08/06 00:05:25;;;;;;;18.27;12.25;;;;;;;14.89;100.00;100262.09;5051151;28;20037;-66
2023/08/06 00:07:51;;;;;;;17.58;12.05;;;;;;;14.88;100.00;100257.69;5051232;28;20037;-67
2023/08/06 00:10:17;;;;;;;17.63;12.07;;;;;;;14.91;100.00;100252.22;5051206;28;20416;-66
2023/08/06 00:12:45;;;;;;;18.42;12.15;;;;;;;14.89;100.00;100262.09;5051051;28;20495;-67
2023/08/06 00:15:11;;;;;;;17.33;11.80;;;;;;;14.89;100.00;100262.09;5051111;28;20025;-66
2023/08/06 00:17:37;;;;;;;17.90;11.90;;;;;;;14.92;100.00;100266.97;5051217;28;20527;-66
2023/08/06 00:20:06;;;;;;;17.83;12.13;;;;;;;14.92;100.00;100256.63;5051190;28;20143;-67
2023/08/06 00:22:35;;;;;;;18.17;12.05;;;;;;;14.83;100.00;100244.81;5051028;28;20025;-66
2023/08/06 00:25:01;;;;;;;18.90;12.38;;;;;;;14.88;100.00;100252.91;5050793;28;20028;-66
2023/08/06 00:27:27;;;;;;;17.60;11.80;;;;;;;14.91;100.00;100245.84;5050818;28;20025;-66
2023/08/06 00:29:52;;;;;;;19.02;12.45;;;;;;;14.90;100.00;100242.25;5050939;28;20036;-66
2023/08/06 00:32:18;;;;;;;18.25;11.98;;;;;;;14.87;100.00;100242.97;5050647;28;20380;-66
2023/08/06 00:34:43;;;;;;;18.13;12.32;;;;;;;14.88;100.00;100249.34;5050939;28;20029;-66
2023/08/06 00:37:08;;;;;;;17.98;11.70;;;;;;;14.88;100.00;100239.00;5050929;28;20052;-66
2023/08/06 00:39:34;;;;;;;18.10;11.90;;;;;;;14.82;100.00;100237.63;5050873;28;20028;-66
2023/08/06 00:41:59;;;;;;;20.77;12.25;;;;;;;14.81;100.00;100236.81;5050725;28;20595;-66
2023/08/06 00:44:24;;;;;;;18.40;11.93;;;;;;;14.80;100.00;100240.75;5050797;28;20188;-67
2023/08/06 00:46:50;;;;;;;19.00;12.38;;;;;;;14.77;100.00;100238.66;5050990;28;20033;-67
2023/08/06 00:49:16;;;;;;;18.80;12.15;;;;;;;14.75;100.00;100240.97;5050948;28;20426;-66
2023/08/06 00:51:42;;;;;;;19.15;12.30;;;;;;;14.74;100.00;100236.56;5050941;28;20039;-66
2023/08/06 00:54:08;;;;;;;19.10;12.60;;;;;;;14.74;100.00;100233.78;5050905;28;20094;-66
2023/08/06 00:56:38;;;;;;;18.27;12.73;;;;;;;14.74;100.00;100233.00;5050815;28;20125;-66
2023/08/06 00:59:05;;;;;;;18.95;12.20;;;;;;;14.72;100.00;100232.53;5050909;28;20040;-66
2023/08/06 01:01:31;;;;;;;18.10;11.65;;;;;;;14.75;100.00;100229.84;5050861;28;20040;-66
2023/08/06 01:03:56;;;;;;;20.98;12.20;;;;;;;14.79;100.00;100239.13;5050702;28;20025;-66
2023/08/06 01:06:50;;;;;;;18.33;12.05;;;;;;;14.74;100.00;100219.88;5050855;28;20037;-66
2023/08/06 01:09:24;;;;;;;19.10;12.35;;;;;;;14.81;100.00;100227.63;5043239;28;20083;-67
2023/08/06 01:12:01;;;;;;;18.77;12.30;;;;;;;14.81;100.00;100230.41;5054711;28;20384;-66
2023/08/06 01:14:47;;;;;;;17.77;12.13;;;;;;;14.84;100.00;100228.91;5054583;28;20040;-66
2023/08/06 01:17:14;;;;;;;18.17;12.32;;;;;;;14.82;100.00;100234.84;5054567;28;20508;-67
2023/08/06 01:19:39;;;;;;;18.25;12.43;;;;;;;14.84;100.00;100234.47;5054485;28;20025;-66
2023/08/06 01:22:05;;;;;;;17.95;11.93;;;;;;;14.85;100.00;100236.94;5054388;28;20035;-67
2023/08/06 01:24:30;;;;;;;18.77;12.52;;;;;;;14.82;100.00;100238.44;5054251;28;20033;-67
2023/08/06 01:27:17;;;;;;;18.38;12.27;;;;;;;14.83;100.00;100236.47;5054292;28;20021;-66
2023/08/06 01:29:48;;;;;;;19.00;12.18;;;;;;;14.76;100.00;100237.03;5054192;28;20396;-66
2023/08/06 01:32:15;;;;;;;19.75;12.25;;;;;;;14.79;100.00;100232.75;5054171;28;20140;-66
2023/08/06 01:34:44;;;;;;;19.60;12.70;;;;;;;14.75;100.00;100224.28;5054179;28;20090;-67
2023/08/06 01:37:11;;;;;;;20.30;12.48;;;;;;;14.78;100.00;100240.28;5054214;28;20041;-66
2023/08/06 01:39:36;;;;;;;18.70;12.68;;;;;;;14.76;100.00;100237.03;5054206;28;20025;-67
2023/08/06 01:42:01;;;;;;;17.80;12.63;;;;;;;14.75;100.00;100231.84;5054034;28;20068;-66
2023/08/06 01:44:27;;;;;;;18.50;12.30;;;;;;;14.72;100.00;100235.31;5053773;28;20028;-66
2023/08/06 01:46:52;;;;;;;18.45;12.65;;;;;;;14.68;100.00;100235.19;5053842;28;20422;-67
2023/08/06 01:49:18;;;;;;;19.08;12.38;;;;;;;14.64;100.00;100234.25;5053920;28;20043;-66
2023/08/06 01:51:43;;;;;;;18.17;12.18;;;;;;;14.63;100.00;100233.44;5052368;28;20460;-66
2023/08/06 01:54:08;;;;;;;18.75;12.50;;;;;;;14.66;100.00;100231.91;5053656;28;20033;-66
2023/08/06 01:56:34;;;;;;;19.30;12.15;;;;;;;14.65;100.00;100224.72;5052319;28;20207;-67
2023/08/06 01:58:59;;;;;;;19.25;12.45;;;;;;;14.61;100.00;100221.03;5053549;28;20029;-66
2023/08/06 02:01:24;;;;;;;18.80;12.43;;;;;;;14.65;100.00;100230.28;5053860;28;20404;-67
2023/08/06 02:03:50;;;;;;;18.42;12.38;;;;;;;14.63;100.00;100227.88;5053497;28;20033;-66
2023/08/06 02:06:15;;;;;;;20.05;12.45;;;;;;;14.64;100.00;100232.28;5053549;28;20021;-67
2023/08/06 02:08:40;;;;;;;18.63;12.18;;;;;;;14.62;100.00;100231.81;5053558;28;20028;-66
2023/08/06 02:11:05;;;;;;;19.02;12.45;;;;;;;14.59;100.00;100228.91;5053554;28;20057;-67
2023/08/06 02:13:31;;;;;;;18.45;12.55;;;;;;;14.59;100.00;100232.53;5053358;28;20053;-66
2023/08/06 02:15:56;;;;;;;19.60;12.20;;;;;;;14.56;100.00;100230.44;5053399;28;20099;-66
2023/08/06 02:18:21;;;;;;;19.35;12.35;;;;;;;14.58;100.00;100227.28;5053334;28;20045;-67
2023/08/06 02:20:57;;;;;;;18.90;12.35;;;;;;;14.57;100.00;100237.63;5053032;28;20397;-66
2023/08/06 02:23:22;;;;;;;18.95;12.23;;;;;;;14.57;100.00;100234.00;5053168;28;20071;-66
2023/08/06 02:25:48;;;;;;;17.88;11.77;;;;;;;14.59;100.00;100228.91;5053158;28;20461;-66
2023/08/06 02:28:13;;;;;;;19.35;12.05;;;;;;;14.60;100.00;100225.75;5053120;28;20087;-66
2023/08/06 02:30:38;;;;;;;18.95;12.23;;;;;;;14.60;100.00;100230.53;5053104;28;20098;-66
2023/08/06 02:33:04;;;;;;;23.92;12.95;;;;;;;14.58;100.00;100225.31;5052911;28;20053;-66
2023/08/06 02:35:29;;;;;;;19.52;12.45;;;;;;;14.60;100.00;100228.56;5052997;28;20099;-67
2023/08/06 02:37:54;;;;;;;19.13;12.32;;;;;;;14.62;100.00;100217.88;5053007;28;20358;-66
2023/08/06 02:40:19;;;;;;;19.42;12.45;;;;;;;14.63;100.00;100219.50;5052983;28;20024;-66
2023/08/06 02:42:45;;;;;;;18.88;12.75;;;;;;;14.64;100.00;100214.78;5052735;28;20078;-66
2023/08/06 02:45:10;;;;;;;19.30;12.68;;;;;;;14.64;100.00;100220.34;5052851;28;20037;-66
2023/08/06 02:47:35;;;;;;;18.95;12.63;;;;;;;14.63;100.00;100219.50;5052809;28;20386;-66
2023/08/06 02:50:01;;;;;;;18.52;12.88;;;;;;;14.63;100.00;100218.72;5052792;28;20068;-66
2023/08/06 02:52:26;;;;;;;19.27;12.60;;;;;;;14.63;100.00;100211.16;5052750;28;20017;-66
2023/08/06 02:54:51;;;;;;;18.35;12.32;;;;;;;14.65;100.00;100219.16;5052722;28;20040;-66
2023/08/06 02:57:17;;;;;;;19.67;12.27;;;;;;;14.65;100.00;100217.19;5052640;28;20074;-66
2023/08/06 02:59:42;;;;;;;19.60;12.52;;;;;;;14.69;100.00;100213.75;5052590;28;20500;-66
2023/08/06 03:02:07;;;;;;;19.13;12.52;;;;;;;14.69;100.00;100219.31;5052688;28;20475;-66
2023/08/06 03:04:32;;;;;;;18.92;12.18;;;;;;;14.70;100.00;100207.00;5052397;28;20526;-66
2023/08/06 03:06:58;;;;;;;19.67;12.30;;;;;;;14.68;100.00;100215.72;5052447;28;20534;-66
2023/08/06 03:09:23;;;;;;;19.13;12.20;;;;;;;14.69;100.00;100210.97;5052370;28;20060;-66
2023/08/06 03:11:48;;;;;;;20.42;12.55;;;;;;;14.68;100.00;100214.91;5052330;28;20111;-66
2023/08/06 03:14:14;;;;;;;18.80;12.45;;;;;;;14.68;100.00;100218.50;5052342;28;20025;-66
2023/08/06 03:16:39;;;;;;;19.45;12.48;;;;;;;14.63;100.00;100205.59;5052354;28;20127;-66
2023/08/06 03:19:04;;;;;;;19.27;12.38;;;;;;;14.67;100.00;100211.31;5052269;28;20031;-66
2023/08/06 03:21:30;;;;;;;19.42;12.27;;;;;;;14.63;100.00;100207.56;5052195;28;20382;-66
2023/08/06 03:23:55;;;;;;;19.00;12.15;;;;;;;14.60;100.00;100222.19;5052001;28;20037;-66
2023/08/06 03:26:20;;;;;;;18.92;12.20;;;;;;;14.56;100.00;100213.72;5051941;28;20021;-66
2023/08/06 03:28:46;;;;;;;18.98;12.27;;;;;;;14.54;100.00;100210.47;5051893;28;20031;-66
2023/08/06 03:31:11;;;;;;;18.70;12.30;;;;;;;14.53;100.00;100217.19;5051682;28;20029;-66
2023/08/06 03:33:36;;;;;;;19.20;11.88;;;;;;;14.54;100.00;100210.47;5051446;28;20120;-66
2023/08/06 03:36:02;;;;;;;19.45;12.35;;;;;;;14.57;100.00;100207.00;5051871;28;20566;-66
2023/08/06 03:38:27;;;;;;;19.38;12.35;;;;;;;14.60;100.00;100211.84;5051925;28;20037;-66
2023/08/06 03:40:53;;;;;;;17.55;11.90;;;;;;;14.58;100.00;100211.41;5051679;28;20035;-66
2023/08/06 03:43:18;;;;;;;19.17;12.30;;;;;;;14.59;100.00;100213.03;5051454;28;20029;-66
2023/08/06 03:45:44;;;;;;;18.80;12.00;;;;;;;14.55;100.00;100209.31;5051684;28;20025;-66
2023/08/06 03:48:09;;;;;;;18.45;12.05;;;;;;;14.54;100.00;100216.03;5050130;28;20033;-66
2023/08/06 03:50:35;;;;;;;18.42;12.73;;;;;;;14.55;100.00;100219.66;5051573;28;20032;-66
2023/08/06 03:53:01;;;;;;;18.88;12.70;;;;;;;14.52;100.00;100215.56;5051571;28;20029;-66
2023/08/06 03:55:27;;;;;;;18.50;12.40;;;;;;;14.55;100.00;100220.44;5051385;28;20071;-67
2023/08/06 03:57:52;;;;;;;19.02;12.52;;;;;;;14.56;100.00;100218.47;5051494;28;20473;-66
2023/08/06 04:00:17;;;;;;;19.42;12.80;;;;;;;14.55;100.00;100223.22;5051436;28;20100;-66
2023/08/06 04:02:43;;;;;;;18.55;12.45;;;;;;;14.53;100.00;100224.75;5051216;28;20036;-66
2023/08/06 04:05:09;;;;;;;18.65;12.60;;;;;;;14.53;100.00;100210.81;5051463;28;20028;-66
2023/08/06 04:07:34;;;;;;;19.75;12.57;;;;;;;14.54;100.00;100213.25;5051269;28;20075;-66
2023/08/06 04:10:02;;;;;;;18.50;12.30;;;;;;;14.52;100.00;100215.56;5051240;28;20040;-66
2023/08/06 04:12:28;;;;;;;18.00;12.52;;;;;;;14.56;100.00;100215.69;5051038;28;20055;-66
2023/08/06 04:14:54;;;;;;;20.20;12.77;;;;;;;14.51;100.00;100225.91;5051141;28;20078;-66
2023/08/06 04:17:20;;;;;;;18.35;12.57;;;;;;;14.50;100.00;100218.72;5051100;28;20469;-66
2023/08/06 04:19:51;;;;;;;18.63;12.30;;;;;;;14.51;100.00;100228.69;5051086;28;20055;-66
2023/08/06 04:22:17;;;;;;;18.17;12.02;;;;;;;14.53;100.00;100231.13;5051132;28;20489;-66
2023/08/06 04:24:43;;;;;;;18.30;11.57;;;;;;;14.56;100.00;100224.84;5051025;28;20071;-66
2023/08/06 04:27:09;;;;;;;17.88;11.48;;;;;;;14.54;100.00;100229.94;5051319;28;20108;-66
2023/08/06 04:29:35;;;;;;;17.73;11.50;;;;;;;14.56;100.00;100238.78;5051157;28;20032;-66
2023/08/06 04:32:00;;;;;;;18.77;12.13;;;;;;;14.55;100.00;100228.00;5050767;28;20724;-66
2023/08/06 04:34:25;;;;;;;18.63;11.70;;;;;;;14.53;100.00;100235.88;5051105;28;20033;-66
2023/08/06 04:36:50;;;;;;;18.42;11.80;;;;;;;14.51;100.00;100239.00;5050947;28;20529;-66
2023/08/06 04:39:16;;;;;;;18.70;11.50;;;;;;;14.51;100.00;100237.03;5050943;28;20029;-66
2023/08/06 04:41:41;;;;;;;19.02;11.52;;;;;;;14.53;100.00;100242.25;5050922;28;20028;-66
2023/08/06 04:44:06;;;;;;;18.08;11.43;;;;;;;14.58;100.00;100238.41;5052418;28;20052;-66
2023/08/06 04:46:32;;;;;;;18.20;11.57;;;;;;;14.60;100.00;100225.75;5055154;28;20044;-67
2023/08/06 04:48:57;;;;;;;18.13;11.57;;;;;;;14.66;100.00;100229.13;5054975;28;20055;-66
2023/08/06 04:51:22;;;;;;;19.75;11.85;;;;;;;14.68;100.00;100232.41;5054983;28;20040;-66
2023/08/06 04:53:47;;;;;;;18.73;11.07;;;;;;;14.63;100.00;100241.78;5054815;28;20036;-66
2023/08/06 04:56:13;;;;;;;19.33;11.65;;;;;;;14.64;100.00;100248.97;5054938;28;20143;-66
2023/08/06 04:58:38;;;;;;;18.98;11.70;;;;;;;14.58;100.00;100242.03;5054934;28;20488;-66
2023/08/06 05:01:03;;;;;;;19.42;11.60;;;;;;;14.58;100.00;100247.59;5054809;28;20025;-66
2023/08/06 05:03:29;;;;;;;18.25;11.57;;;;;;;14.59;100.00;100240.88;5054646;28;20017;-66
2023/08/06 05:05:55;;;;;;;19.65;12.05;;;;;;;14.59;100.00;100256.75;5054496;28;20021;-66
2023/08/06 05:08:20;;;;;;;19.92;12.20;;;;;;;14.58;100.00;100250.38;5054585;28;20028;-66
2023/08/06 05:10:45;;;;;;;18.20;11.50;;;;;;;14.65;100.00;100256.16;5054550;28;20481;-66
2023/08/06 05:13:11;;;;;;;18.70;11.88;;;;;;;14.75;100.00;100252.13;5054649;28;20464;-66
2023/08/06 05:15:36;;;;;;;19.05;12.18;;;;;;;14.78;100.00;100265.34;5054537;28;20461;-66
2023/08/06 05:18:02;;;;;;;18.17;12.05;;;;;;;14.81;100.00;100266.63;5054413;28;20033;-66
2023/08/06 05:20:27;;;;;;;20.35;12.35;;;;;;;14.89;100.00;100262.91;5054375;28;20025;-66
2023/08/06 05:22:52;;;;;;;18.38;11.32;;;;;;;14.96;100.00;100268.72;5054306;28;20112;-66
2023/08/06 05:25:18;;;;;;;18.13;11.68;;;;;;;15.06;100.00;100275.75;5054315;28;20401;-66
2023/08/06 05:27:43;;;;;;;19.63;11.98;;;;;;;15.17;100.00;100280.84;5054308;28;20068;-66
2023/08/06 05:30:10;;;;;;;17.58;11.38;;;;;;;15.20;100.00;100272.59;5054299;28;20044;-66
2023/08/06 05:32:35;;;;;;;18.70;12.00;;;;;;;15.20;100.00;100280.97;5054034;28;20136;-66
2023/08/06 05:35:00;;;;;;;20.27;11.80;;;;;;;15.17;100.00;100281.66;5053858;28;20203;-66
2023/08/06 05:37:26;;;;;;;18.35;11.68;;;;;;;15.18;100.00;100291.63;5053914;28;20032;-67
2023/08/06 05:39:51;;;;;;;19.27;11.65;;;;;;;15.15;100.00;100286.78;5053928;28;20051;-66
2023/08/06 05:42:16;;;;;;;19.38;11.82;;;;;;;15.14;100.00;100296.31;5053825;28;20086;-66
2023/08/06 05:44:41;;;;;;;19.42;12.55;;;;;;;15.10;100.00;100298.16;5053634;28;20021;-66
2023/08/06 05:47:07;;;;;;;19.67;12.90;;;;;;;15.00;100.00;100298.63;5053769;28;20440;-66
2023/08/06 05:49:32;;;;;;;20.25;13.35;;;;;;;15.00;100.00;100305.03;5053599;28;20484;-67
2023/08/06 05:51:57;;;;;;;19.42;13.40;;;;;;;14.99;100.00;100311.75;5053543;28;20063;-67
2023/08/06 05:54:23;;;;;;;20.17;13.43;;;;;;;14.98;100.00;100304.56;5053424;28;20060;-66
2023/08/06 05:56:48;;;;;;;21.20;13.55;;;;;;;15.03;100.00;100312.66;5052685;28;20029;-66
2023/08/06 05:59:13;;;;;;;19.33;13.43;;;;;;;15.11;100.00;100313.72;5053531;28;20032;-66
2023/08/06 06:01:39;;;;;;;20.85;14.93;;;;;;;15.16;100.00;100312.66;5051931;28;20485;-66
2023/08/06 06:04:04;;;;;;;21.30;15.80;;;;;;;15.18;100.00;100313.94;5053180;28;20365;-66
2023/08/06 06:06:29;;;;;;;23.90;15.20;;;;;;;15.22;100.00;100314.03;5053174;28;20044;-66
2023/08/06 06:08:54;;;;;;;23.40;16.23;;;;;;;15.36;100.00;100316.44;5053190;28;20107;-66
2023/08/06 06:11:21;;;;;;;21.83;16.08;;;;;;;15.43;100.00;100325.84;5053130;28;20084;-67
2023/08/06 06:13:49;;;;;;;22.95;16.30;;;;;;;15.53;100.00;100338.50;5053293;28;20029;-66
2023/08/06 06:16:14;;;;;;;23.58;16.92;;;;;;;15.53;100.00;100329.31;5053288;28;20370;-66
2023/08/06 06:18:40;;;;;;;21.88;15.77;;;;;;;15.57;100.00;100336.59;5053224;28;20477;-66
2023/08/06 06:21:05;;;;;;;23.30;15.32;;;;;;;15.54;100.00;100334.50;5053222;28;20061;-66
2023/08/06 06:23:30;;;;;;;20.90;14.75;;;;;;;15.52;100.00;100336.03;5053210;28;20120;-66
2023/08/06 06:25:55;;;;;;;20.98;14.30;;;;;;;15.54;100.00;100351.25;5053090;28;20025;-66
2023/08/06 06:28:21;;;;;;;20.35;14.23;;;;;;;15.56;100.00;100354.50;5053078;28;20021;-67
2023/08/06 06:30:46;;;;;;;20.55;14.93;;;;;;;15.49;100.00;100348.72;5053045;28;20473;-66
2023/08/06 06:33:11;;;;;;;20.95;13.93;;;;;;;15.48;100.00;100357.44;5051526;28;20412;-66
2023/08/06 06:35:37;;;;;;;21.73;13.98;;;;;;;15.49;100.00;100354.28;5052923;28;20025;-66
2023/08/06 06:38:02;;;;;;;20.80;14.00;;;;;;;15.47;100.00;100366.97;5052898;28;20411;-66
2023/08/06 06:40:28;;;;;;;20.73;13.57;;;;;;;15.42;100.00;100371.59;5053023;28;20071;-66
2023/08/06 06:42:53;;;;;;;21.08;13.80;;;;;;;15.35;100.00;100371.38;5052749;28;20866;-66
2023/08/06 06:45:18;;;;;;;20.92;13.77;;;;;;;15.27;100.00;100369.53;5052808;28;20020;-65
2023/08/06 06:47:44;;;;;;;20.60;13.90;;;;;;;15.23;100.00;100371.38;5051279;28;20029;-66
2023/08/06 06:50:09;;;;;;;20.73;13.80;;;;;;;15.25;100.00;100371.84;5052703;28;20025;-66
2023/08/06 06:52:35;;;;;;;20.88;14.27;;;;;;;15.25;100.00;100369.06;5052634;28;20476;-67
2023/08/06 06:55:00;;;;;;;20.35;14.20;;;;;;;15.28;100.00;100371.97;5052602;28;20033;-66
2023/08/06 06:57:25;;;;;;;21.95;14.88;;;;;;;15.34;100.00;100377.31;5052471;28;20063;-66
2023/08/06 06:59:50;;;;;;;21.20;14.57;;;;;;;15.35;100.00;100378.94;5052568;28;20025;-66
2023/08/06 07:02:16;;;;;;;20.67;14.73;;;;;;;15.38;100.00;100378.22;5052295;28;20472;-66
2023/08/06 07:04:41;;;;;;;22.23;14.98;;;;;;;15.47;100.00;100383.69;5052298;28;20032;-66
2023/08/06 07:07:06;;;;;;;21.02;14.95;;;;;;;15.54;100.00;100386.69;5051417;28;20032;-66
2023/08/06 07:09:32;;;;;;;22.58;14.77;;;;;;;15.58;100.00;100380.06;5052121;28;20105;-66
2023/08/06 07:11:57;;;;;;;21.27;15.30;;;;;;;15.73;100.00;100384.09;5052148;28;20435;-66
2023/08/06 07:14:25;;;;;;;22.73;15.45;;;;;;;15.75;100.00;100390.13;5052298;28;20028;-66
2023/08/06 07:16:50;;;;;;;22.38;15.40;;;;;;;15.80;100.00;100388.25;5052034;28;20075;-66
2023/08/06 07:19:15;;;;;;;23.17;15.75;;;;;;;15.88;100.00;100387.31;5051905;28;20029;-66
2023/08/06 07:21:41;;;;;;;22.05;16.17;;;;;;;15.90;100.00;100385.00;5051863;28;20029;-66
2023/08/06 07:24:06;;;;;;;21.60;15.93;;;;;;;15.96;100.00;100393.94;5051798;28;20484;-66
2023/08/06 07:26:31;;;;;;;22.67;16.30;;;;;;;16.04;100.00;100398.53;5051924;28;20036;-65
2023/08/06 07:29:04;;;;;;;22.92;16.80;;;;;;;16.14;100.00;100400.84;5108711;27;20689;-66
2023/08/06 07:31:29;;;;;;;22.60;15.95;;;;;;;16.23;100.00;100409.06;5108800;28;20032;-66
2023/08/06 07:33:54;;;;;;;22.98;16.35;;;;;;;16.25;100.00;100397.53;5108695;28;20024;-66
2023/08/06 07:36:20;;;;;;;22.38;16.20;;;;;;;16.28;100.00;100416.38;5108670;28;20386;-66
2023/08/06 07:38:45;;;;;;;21.92;15.63;;;;;;;16.36;100.00;100413.41;5108620;28;20032;-66
2023/08/06 07:41:11;;;;;;;20.80;15.23;;;;;;;16.21;100.00;100420.56;5108518;28;20383;-66
2023/08/06 07:43:36;;;;;;;21.05;15.25;;;;;;;16.10;100.00;100418.63;5108639;28;20028;-66
2023/08/06 07:46:02;;;;;;;22.50;15.68;;;;;;;15.94;100.00;100413.00;5108495;28;20495;-66
2023/08/06 07:48:27;;;;;;;22.52;16.40;;;;;;;15.83;100.00;100416.25;5108445;28;20523;-68
2023/08/06 07:50:56;;;;;;;21.88;15.25;;;;;;;15.66;100.00;100431.28;5108394;28;20042;-66
2023/08/06 07:53:23;;;;;;;16.65;10.07;;;;;;;15.29;100.00;100442.47;5108372;28;20032;-67
2023/08/06 07:55:52;;;;;;;12.18;9.27;;;;;;;14.94;100.00;100431.75;5108416;28;20020;-66
2023/08/06 07:58:18;;;;;;;10.52;8.80;;;;;;;14.89;100.00;100424.41;5108402;28;20399;-66
2023/08/06 08:00:45;;;;;;;10.20;8.80;;;;;;;14.79;100.00;100452.72;5106957;28;20020;-66
2023/08/06 08:03:12;;;;;;;11.43;9.40;;;;;;;14.31;100.00;100438.28;5108229;28;20039;-65
2023/08/06 08:05:37;;;;;;;13.50;9.90;;;;;;;14.16;100.00;100446.09;5108218;28;20103;-65
2023/08/06 08:08:02;;;;;;;14.75;10.57;;;;;;;13.79;100.00;100445.88;5108150;28;20534;-67
2023/08/06 08:10:28;;;;;;;14.75;11.23;;;;;;;13.64;100.00;100452.88;5108114;28;20032;-63
2023/08/06 08:12:53;;;;;;;17.67;12.40;;;;;;;13.51;100.00;100451.94;5108139;28;20051;-63
2023/08/06 08:15:18;;;;;;;17.45;12.52;;;;;;;13.38;100.00;100450.22;5108144;28;20050;-63
2023/08/06 08:17:44;;;;;;;18.40;13.30;;;;;;;13.34;100.00;100452.00;5106703;28;20106;-63
2023/08/06 08:20:09;;;;;;;18.48;13.32;;;;;;;13.40;100.00;100457.06;5107748;28;20023;-63
2023/08/06 08:22:35;;;;;;;19.10;14.43;;;;;;;13.40;100.00;100475.72;5107941;28;20031;-62
2023/08/06 08:25:00;;;;;;;18.88;14.63;;;;;;;13.34;100.00;100452.84;5107845;28;20104;-62
2023/08/06 08:27:26;;;;;;;19.98;13.93;;;;;;;13.34;100.00;100466.72;5107795;28;20047;-62
2023/08/06 08:29:51;;;;;;;21.05;15.27;;;;;;;13.34;100.00;100482.56;5107784;28;20028;-62
2023/08/06 08:32:16;;;;;;;20.85;14.20;;;;;;;13.34;100.00;100477.00;5107710;28;20054;-62
2023/08/06 08:34:42;;;;;;;20.77;14.50;;;;;;;13.39;100.00;100480.44;5107644;28;20055;-62
2023/08/06 08:37:07;;;;;;;21.58;14.55;;;;;;;13.40;100.00;100475.72;5107682;28;20106;-62
2023/08/06 08:39:32;;;;;;;20.67;13.77;;;;;;;13.33;100.00;100489.28;5099112;28;20024;-62
2023/08/06 08:41:58;;;;;;;20.42;13.32;;;;;;;13.43;100.00;100477.81;5093892;28;20051;-62
2023/08/06 08:44:28;;;;;;;20.52;12.77;;;;;;;13.37;100.00;100499.38;5094005;28;20027;-63
2023/08/06 08:46:53;;;;;;;19.42;12.52;;;;;;;13.37;100.00;100493.81;5094044;28;20038;-63
2023/08/06 08:49:21;;;;;;;21.15;12.57;;;;;;;13.34;100.00;100493.69;5093645;28;20485;-63
2023/08/06 08:51:48;;;;;;;18.90;11.90;;;;;;;13.41;100.00;100491.25;5093839;28;20036;-63
2023/08/06 08:54:16;;;;;;;19.77;12.02;;;;;;;13.36;100.00;100517.22;5093759;28;20053;-63
2023/08/06 08:56:42;;;;;;;18.10;11.70;;;;;;;13.44;100.00;100512.78;5093743;28;20026;-63
2023/08/06 08:59:07;;;;;;;19.95;11.73;;;;;;;13.37;100.00;100501.38;5093739;28;20107;-62
2023/08/06 09:01:33;;;;;;;18.73;11.80;;;;;;;13.38;100.00;100512.13;5092221;28;20085;-63
2023/08/06 09:03:59;;;;;;;18.05;10.90;;;;;;;13.31;100.00;100511.03;5093482;28;20032;-62
2023/08/06 09:06:27;;;;;;;18.95;11.02;;;;;;;13.33;100.00;100523.44;5093563;28;20020;-63
2023/08/06 09:09:08;;;;;;;18.08;11.50;;;;;;;13.30;100.00;100524.09;5093412;28;20028;-63
2023/08/06 09:11:42;;;;;;;18.70;11.70;;;;;;;13.37;100.00;100518.84;5093376;28;20028;-63
2023/08/06 09:14:10;;;;;;;17.35;11.30;;;;;;;13.43;100.00;100538.94;5093340;28;20119;-63
2023/08/06 09:16:36;;;;;;;19.40;11.60;;;;;;;13.51;100.00;100520.63;5093291;28;20032;-63
2023/08/06 09:19:17;;;;;;;18.25;11.25;;;;;;;13.60;100.00;100534.47;5091897;28;20038;-63
2023/08/06 09:21:43;;;;;;;18.92;11.40;;;;;;;13.56;100.00;100528.75;5093360;28;20045;-63
2023/08/06 09:24:10;;;;;;;17.20;10.63;;;;;;;13.65;100.00;100531.50;5093168;28;20024;-63
2023/08/06 09:26:37;;;;;;;18.10;11.18;;;;;;;13.73;100.00;100528.69;5093066;28;20046;-63
2023/08/06 09:29:05;;;;;;;18.85;10.68;;;;;;;13.73;100.00;100538.97;5092890;28;20495;-64
2023/08/06 09:31:40;;;;;;;16.55;10.80;;;;;;;13.78;100.00;100537.97;5093209;28;20116;-63
2023/08/06 09:34:12;;;;;;;18.05;10.70;;;;;;;13.70;100.00;100534.91;5093028;28;20036;-64
2023/08/06 09:36:42;;;;;;;19.08;11.15;;;;;;;13.78;100.00;100549.09;5092937;28;20123;-63
2023/08/06 09:39:15;;;;;;;18.90;11.15;;;;;;;13.77;100.00;100553.84;5092887;28;20103;-64
2023/08/06 09:41:40;;;;;;;18.05;11.15;;;;;;;13.79;100.00;100547.94;5092916;28;20024;-63
2023/08/06 09:44:16;;;;;;;19.27;11.27;;;;;;;13.86;100.00;100546.28;5092861;28;20485;-63
2023/08/06 09:46:42;;;;;;;17.80;11.00;;;;;;;13.94;100.00;100547.34;5092720;28;20551;-64
2023/08/06 09:49:09;;;;;;;17.58;10.48;;;;;;;13.95;100.00;100557.34;5092680;28;20128;-64
2023/08/06 09:51:34;;;;;;;19.25;10.93;;;;;;;14.01;100.00;100563.50;5091528;28;20058;-64
2023/08/06 09:54:01;;;;;;;18.52;11.43;;;;;;;13.95;100.00;100565.66;5092583;28;20060;-64
2023/08/06 09:56:28;;;;;;;18.65;10.60;;;;;;;14.00;100.00;100576.63;5092499;28;20040;-64
2023/08/06 09:58:54;;;;;;;17.63;10.55;;;;;;;13.97;100.00;100579.25;5092727;28;20035;-65
2023/08/06 10:01:21;;;;;;;18.20;10.55;;;;;;;14.00;100.00;100578.56;5092455;28;20024;-64
2023/08/06 10:03:49;;;;;;;17.05;10.80;;;;;;;14.04;100.00;100580.34;5092410;28;20055;-64
2023/08/06 10:06:14;;;;;;;17.35;10.75;;;;;;;14.11;100.00;100579.03;5092335;28;20024;-64
2023/08/06 10:08:42;;;;;;;18.00;10.77;;;;;;;14.17;100.00;100577.66;5092101;28;20024;-64
2023/08/06 10:11:07;;;;;;;19.10;11.20;;;;;;;14.19;100.00;100592.06;5092531;28;20035;-64
2023/08/06 10:13:34;;;;;;;18.98;10.85;;;;;;;14.26;100.00;100580.41;5092222;28;20079;-64
2023/08/06 10:16:02;;;;;;;18.75;11.23;;;;;;;14.30;100.00;100587.72;5090994;28;20042;-64
2023/08/06 10:18:28;;;;;;;19.48;10.93;;;;;;;14.33;100.00;100584.25;5092057;28;20035;-63
2023/08/06 10:20:54;;;;;;;17.60;11.07;;;;;;;14.33;100.00;100584.25;5092062;28;20141;-64
2023/08/06 10:23:20;;;;;;;19.65;11.40;;;;;;;14.35;100.00;100583.94;5092064;28;20040;-64
2023/08/06 10:25:53;;;;;;;19.42;11.73;;;;;;;14.38;100.00;100583.22;5092192;28;20476;-64
2023/08/06 10:28:19;;;;;;;20.38;11.90;;;;;;;14.42;100.00;100583.38;5091819;28;20067;-64
2023/08/06 10:30:45;;;;;;;19.38;11.80;;;;;;;14.45;100.00;100594.63;5091803;28;20020;-64
2023/08/06 10:33:11;;;;;;;19.17;11.73;;;;;;;14.43;100.00;100587.78;5091813;28;20055;-64
2023/08/06 10:35:49;;;;;;;20.17;11.23;;;;;;;14.37;100.00;100586.38;5091813;28;20345;-64
2023/08/06 10:38:17;;;;;;;21.15;11.68;;;;;;;14.40;100.00;100594.03;5092064;28;20027;-64
2023/08/06 10:40:51;;;;;;;18.25;10.77;;;;;;;14.41;100.00;100592.88;5091760;28;20055;-64
2023/08/06 10:43:32;;;;;;;19.05;11.48;;;;;;;14.47;100.00;100597.09;5091726;28;20283;-64
2023/08/06 10:45:59;;;;;;;20.00;11.80;;;;;;;14.48;100.00;100601.50;5091714;28;20036;-64
2023/08/06 10:48:38;;;;;;;19.30;11.48;;;;;;;14.48;100.00;100587.59;5091942;28;20031;-64
2023/08/06 10:51:08;;;;;;;18.77;11.20;;;;;;;14.56;100.00;100600.63;5091645;28;20028;-64
2023/08/06 10:53:34;;;;;;;19.20;11.68;;;;;;;14.58;100.00;100600.28;5091801;28;20111;-64
2023/08/06 10:56:00;;;;;;;17.73;11.40;;;;;;;14.56;100.00;100608.97;5091537;28;20067;-64
2023/08/06 10:58:25;;;;;;;20.15;11.95;;;;;;;14.58;100.00;100608.63;5091275;28;20039;-64